BWI weather

Public forecast

Using degrees Fahrenheit for public forecast. Weather courtesy of forecast.io.

Current aviation weather report (METAR) for Baltimore/Washington International Thurgood Marshall Airport

Retrieved 2020/08/10 17:54 UTC (13 minutes ago):

KBWI 101754Z VRB04KT 10SM SCT050CB BKN070 33/21 A3002 RMK AO2 SLP164 CB NE MOV E T03280206 10339 20261 58013

Aviation forecast (TAF) for Baltimore/Washington International Thurgood Marshall Airport

Retrieved 2020/08/10 18:45 UTC (0 seconds ago):

TAF KBWI 101743Z 1018/1124 VRB03KT P6SM SCT050 FM101900 19006KT P6SM SCT050 FM102300 16006KT P6SM SCT200 FM110800 19004KT P6SM SCT250